METAR Reports From Nearby Airports

 

KLUD - Decatur, Texas, USA
Distance from Wildwood: ESE 5mi, 8km
Updated: Jul 31, 2021 5:35pm
Clear
Clear
 Wind from ESE
Wind: ESE 7 mph , 11 km/h
Temperature: 97°F , 36°C
Dew Point: 63°F , 17°C
Humidity: 32%
Barometer: 29.99 inHg , 1015.6 hPa
Clouds: Clear
Visibility: 7 miles , 11 km
2021/07/31 22:35 KLUD 312235Z AUTO 12006KT 7SM CLR 36/17 A2999 RMK AO2 T03640167
KXBP - Bridgeport, Texas, USA
Distance from Wildwood: WSW 11mi, 18km
Updated: Jul 31, 2021 5:35pm
Mostly Cloudy
Mostly Cloudy
 Wind from SE
Wind: SE 9 mph , 15 km/h
Temperature: 99°F , 37°C
Dew Point: 66°F , 19°C
Humidity: 35%
Barometer: 29.99 inHg , 1015.6 hPa
Clouds: Mostly Cloudy
Visibility: 10 miles , 16 km
Cloud details: Partly Cloudy 6500 ft
Mostly Cloudy 8000 ft
2021/07/31 22:35 KXBP 312235Z AUTO 13008KT 10SM SCT065 BKN080 37/19 A2999 RMK AO2 T03650190
 
K0F2 - Bowie, Texas, USA
Distance from Wildwood: NNW 24mi, 39km
Updated: Jul 31, 2021 5:35pm
Partly Cloudy
Partly Cloudy
 Wind from S
Wind: S 8 mph , 13 km/h
Temperature: 97°F , 36°C
Dew Point: 68°F , 20°C
Humidity: 39%
Barometer: 29.99 inHg , 1015.6 hPa
Clouds: Partly Cloudy
Visibility: 10 miles , 16 km
Cloud details: Partly Cloudy 7000 ft
Partly Cloudy 9000 ft
2021/07/31 22:35 K0F2 312235Z AUTO 17007KT 10SM SCT070 SCT090 36/20 A2999 RMK AO2 T03630198
KDTO - Denton, Texas, USA
Distance from Wildwood: E 27mi, 44km
Updated: Jul 31, 2021 4:53pm
Few Clouds
Few Clouds
 Wind from S
Wind: S 8 mph , 13 km/h
Temperature: 99°F , 37°C
Dew Point: 66°F , 19°C
Humidity: 35%
Barometer: 29.98 inHg , 1015.2 hPa
Clouds: Few Clouds
Visibility: 10 miles , 16 km
Cloud details: Few Clouds 7000 ft
2021/07/31 21:53 KDTO 312153Z 17007KT 10SM FEW070 37/19 A2998 RMK AO2 SLP141 T03720189
 
KAFW - Ft Worth/Allianc, Texas, USA
Distance from Wildwood: SE 29mi, 46km
Updated: Jul 31, 2021 4:53pm
Partly Cloudy
Partly Cloudy
 Wind from SE
Wind: SE 9 mph , 15 km/h
Temperature: 97°F , 36°C
Dew Point: 66°F , 19°C
Humidity: 37%
Barometer: 29.97 inHg , 1014.9 hPa
Clouds: Partly Cloudy
Visibility: 10 miles , 16 km
Cloud details: Partly Cloudy 8500 ft
2021/07/31 21:53 KAFW 312153Z 14008KT 10SM SCT085TCU 36/19 A2997 RMK AO2 SLP131 TCU SW-NW AND DSNT ALQDS T03610194 $
KFTW - Fort Worth, Texas, USA
Distance from Wildwood: SSE 34mi, 55km
Updated: Jul 31, 2021 4:53pm
Partly Cloudy
Partly Cloudy
 Wind from SE
Wind: SE 8 mph , 13 km/h
Temperature: 99°F , 37°C
Dew Point: 66°F , 19°C
Humidity: 35%
Barometer: 29.97 inHg , 1014.9 hPa
Clouds: Partly Cloudy
Visibility: 10 miles , 16 km
Cloud details: Partly Cloudy 7000 ft
2021/07/31 21:53 KFTW 312153Z 14007KT 10SM SCT070 37/19 A2997 RMK AO2 SLP138 T03670194
 
KNFW - Fort Worth Nas, Texas, USA
Distance from Wildwood: SSE 36mi, 58km
Updated: Jul 31, 2021 4:52pm
Partly Cloudy
Partly Cloudy
 Wind from SE
Wind: SE 12 mph , 19 km/h, Gust: 21 mph , 33 km/h
Temperature: 99°F , 37°C
Dew Point: 68°F , 20°C
Humidity: 37%
Barometer: 29.98 inHg , 1015.2 hPa
Clouds: Partly Cloudy
Visibility: 10 miles , 16 km
Cloud details: Partly Cloudy 7000 ft
Partly Cloudy 9000 ft
2021/07/31 21:52 KNFW 312152Z 14010G18KT 120V190 10SM SCT070 SCT090 37/20 A2998 RMK AO2 SLP136 T03670200 $
KGLE - Gainesville, Texas, USA
Distance from Wildwood: NE 38mi, 61km
Updated: Jul 31, 2021 5:15pm
Partly Cloudy
Partly Cloudy
 Wind from ESE
Wind: ESE 7 mph , 11 km/h
Temperature: 95°F , 35°C
Heat Index: 100°F , 38°C
Dew Point: 68°F , 20°C
Humidity: 41%
Barometer: 30.00 inHg , 1015.9 hPa
Clouds: Partly Cloudy
Visibility: 10 miles , 16 km
Cloud details: Partly Cloudy 6000 ft
2021/07/31 22:15 KGLE 312215Z AUTO 11006KT 10SM SCT060 35/20 A3000 RMK AO2 T03510202 PWINO
 
KMWL - Mineral Wells, Texas, USA
Distance from Wildwood: SW 41mi, 65km
Updated: Jul 31, 2021 4:53pm
Clear
Clear
 Wind from varies
Wind: varies 3 mph , 6 km/h
Temperature: 97°F , 36°C
Dew Point: 68°F , 20°C
Humidity: 39%
Barometer: 29.98 inHg , 1015.2 hPa
Clouds: Clear
Visibility: 10 miles , 16 km
2021/07/31 21:53 KMWL 312153Z AUTO VRB03KT 10SM CLR 36/20 A2998 RMK AO2 SLP137 T03560200
KDFW - Dallas/Ft Worth, Texas, USA
Distance from Wildwood: ESE 45mi, 73km
Updated: Jul 31, 2021 4:53pm
Partly Cloudy
Partly Cloudy
 Wind from SSW
Wind: SSW 9 mph , 15 km/h
Temperature: 99°F , 37°C
Dew Point: 66°F , 19°C
Humidity: 35%
Barometer: 29.96 inHg , 1014.6 hPa
Clouds: Partly Cloudy
Visibility: 10 miles , 16 km
Cloud details: Partly Cloudy 7000 ft
2021/07/31 21:53 KDFW 312153Z 21008KT 10SM SCT070 37/19 A2996 RMK AO2 SLP136 MDT CU ALQDS T03720189 $